createdAt,value
2019-05-14T00:01:22.184Z,6.35
2019-05-14T00:03:51.600Z,6.21
2019-05-14T00:06:21.923Z,6.28
2019-05-14T00:08:52.158Z,6.28
2019-05-14T00:11:21.935Z,6.29
2019-05-14T00:13:52.011Z,6.20
2019-05-14T00:16:23.838Z,6.23
2019-05-14T00:18:51.221Z,6.18
2019-05-14T00:23:51.393Z,5.95
2019-05-14T00:26:21.484Z,5.91
2019-05-14T00:28:51.233Z,5.99
2019-05-14T00:31:21.388Z,5.94
2019-05-14T00:33:51.301Z,5.89
2019-05-14T00:36:21.513Z,5.89
2019-05-14T00:38:51.295Z,5.95
2019-05-14T00:41:21.490Z,5.99
2019-05-14T00:43:51.389Z,5.99
2019-05-14T00:46:21.170Z,5.95
2019-05-14T00:48:51.408Z,5.99
2019-05-14T00:51:21.464Z,5.96
2019-05-14T00:53:51.567Z,5.92
2019-05-14T00:56:21.630Z,5.79
2019-05-14T00:58:51.941Z,5.75
2019-05-14T01:01:21.471Z,5.72
2019-05-14T01:04:02.916Z,5.72
2019-05-14T01:06:31.643Z,5.44
2019-05-14T01:09:01.534Z,5.39
2019-05-14T01:11:31.607Z,5.37
2019-05-14T01:14:21.092Z,5.50
2019-05-14T01:16:51.413Z,5.50
2019-05-14T01:19:21.397Z,5.54
2019-05-14T01:22:31.657Z,5.46
2019-05-14T01:25:01.561Z,5.46
2019-05-14T01:27:31.716Z,5.36
2019-05-14T01:30:02.105Z,5.41
2019-05-14T01:32:31.496Z,5.40
2019-05-14T01:35:01.405Z,5.44
2019-05-14T01:37:31.105Z,5.29
2019-05-14T01:40:01.215Z,5.30
2019-05-14T01:42:32.112Z,5.25
2019-05-14T01:45:02.566Z,4.93
2019-05-14T01:47:31.847Z,5.02
2019-05-14T01:50:02.146Z,5.08
2019-05-14T01:52:31.826Z,5.14
2019-05-14T01:55:02.180Z,5.14
2019-05-14T01:57:31.176Z,5.03
2019-05-14T02:00:02.324Z,4.85
2019-05-14T02:02:31.321Z,4.61
2019-05-14T02:05:02.036Z,4.53
2019-05-14T02:07:31.443Z,4.47
2019-05-14T02:10:01.149Z,4.59
2019-05-14T02:12:31.587Z,4.67
2019-05-14T02:15:01.931Z,4.54
2019-05-14T02:17:31.789Z,4.60
2019-05-14T02:20:02.052Z,4.34
2019-05-14T02:22:32.010Z,4.10
2019-05-14T02:25:02.344Z,4.11
2019-05-14T02:27:34.766Z,4.27
2019-05-14T02:32:29.959Z,4.28
2019-05-14T02:35:20.174Z,4.63
2019-05-14T02:37:50.491Z,4.63
2019-05-14T02:41:00.028Z,4.66
2019-05-14T02:43:29.431Z,4.64
2019-05-14T02:46:10.663Z,4.70
2019-05-14T02:48:29.549Z,4.70
2019-05-14T02:50:59.778Z,4.59
2019-05-14T02:54:09.881Z,4.57
2019-05-14T02:56:40.249Z,4.56
2019-05-14T02:59:09.987Z,4.57
2019-05-14T03:01:40.521Z,4.59
2019-05-14T03:04:09.351Z,4.47
2019-05-14T03:06:39.696Z,4.49
2019-05-14T03:09:09.908Z,4.48
2019-05-14T03:11:40.436Z,4.51
2019-05-14T03:14:09.326Z,4.35
2019-05-14T03:16:40.168Z,4.40
2019-05-14T03:19:09.949Z,4.38
2019-05-14T03:21:39.728Z,4.40
2019-05-14T03:24:09.657Z,4.41
2019-05-14T03:26:39.815Z,4.30
2019-05-14T03:29:10.054Z,4.23
2019-05-14T03:31:53.310Z,4.36
2019-05-14T03:34:22.620Z,4.30
2019-05-14T03:36:53.202Z,4.11
2019-05-14T03:39:21.730Z,4.09
2019-05-14T03:41:50.242Z,3.98
2019-05-14T03:44:20.128Z,3.93
2019-05-14T03:46:54.724Z,3.82
2019-05-14T03:49:19.799Z,3.87
2019-05-14T03:51:49.826Z,3.92
2019-05-14T03:54:19.475Z,4.01
2019-05-14T03:56:49.710Z,4.08
2019-05-14T03:59:19.905Z,4.14
2019-05-14T04:01:51.186Z,4.20
2019-05-14T04:04:19.570Z,4.24
2019-05-14T04:07:22.499Z,4.25
2019-05-14T04:10:24.073Z,4.20
2019-05-14T04:13:29.985Z,4.21
2019-05-14T04:15:59.742Z,4.37
2019-05-14T04:21:48.824Z,4.42
2019-05-14T04:24:15.567Z,4.48
2019-05-14T04:27:23.897Z,4.56
2019-05-14T04:30:32.212Z,4.59
2019-05-14T04:33:33.774Z,4.72
2019-05-14T04:36:02.075Z,4.84
2019-05-14T04:38:30.443Z,4.93
2019-05-14T04:40:59.891Z,4.94
2019-05-14T04:43:29.622Z,5.03
2019-05-14T04:45:59.354Z,5.14
2019-05-14T04:48:37.145Z,5.27
2019-05-14T04:51:00.534Z,5.47
2019-05-14T04:53:30.808Z,5.63
2019-05-14T04:56:00.050Z,5.82
2019-05-14T04:58:29.826Z,6.06
2019-05-14T05:01:00.645Z,6.29
2019-05-14T05:18:49.588Z,7.48
2019-05-14T05:24:20.300Z,7.93
2019-05-14T05:36:52.075Z,8.45
2019-05-14T05:39:20.699Z,8.59
2019-05-14T05:41:49.315Z,8.88
2019-05-14T05:44:32.481Z,8.96
2019-05-14T05:47:00.736Z,9.05
2019-05-14T05:49:29.330Z,9.13
2019-05-14T06:01:21.812Z,9.61
2019-05-14T06:07:02.388Z,9.74
2019-05-14T06:09:29.076Z,9.79
2019-05-14T06:20:18.943Z,10.19
2019-05-14T06:25:36.136Z,10.11
2019-05-14T06:28:04.403Z,10.26
2019-05-14T06:33:39.350Z,10.52
2019-05-14T06:36:08.596Z,10.72
2019-05-14T06:38:38.815Z,10.36
2019-05-14T06:44:18.720Z,11.07
2019-05-14T06:49:44.998Z,11.19
2019-05-14T06:52:13.281Z,11.17
2019-05-14T06:54:41.567Z,11.37
2019-05-14T06:57:09.828Z,11.53
2019-05-14T07:02:28.479Z,11.68
2019-05-14T07:04:58.814Z,11.50
2019-05-14T07:07:29.693Z,11.43
2019-05-14T07:09:58.210Z,11.65
2019-05-14T07:18:19.358Z,11.80
2019-05-14T07:23:50.693Z,11.85
2019-05-14T07:29:34.888Z,11.74
2019-05-14T07:32:03.174Z,12.15
2019-05-14T07:35:12.280Z,12.27
2019-05-14T07:40:52.602Z,12.43
2019-05-14T07:49:15.655Z,12.69
2019-05-14T07:55:02.526Z,12.99
2019-05-14T07:57:49.934Z,13.17
2019-05-14T08:03:19.288Z,13.05
2019-05-14T08:05:48.298Z,13.29
2019-05-14T08:18:52.157Z,13.36
2019-05-14T08:24:39.616Z,13.54
2019-05-14T08:27:08.510Z,13.58
2019-05-14T08:29:54.988Z,13.46
2019-05-14T08:32:23.273Z,13.46
2019-05-14T08:38:45.350Z,13.87
2019-05-14T08:41:59.542Z,13.98
2019-05-14T08:47:29.419Z,13.68
2019-05-14T08:52:54.325Z,14.00
2019-05-14T08:58:39.776Z,13.00
2019-05-14T09:01:08.389Z,13.20
2019-05-14T09:03:39.333Z,13.28
2019-05-14T09:06:09.114Z,13.24
2019-05-14T09:08:39.012Z,13.45
2019-05-14T09:11:09.972Z,13.59
2019-05-14T09:13:38.615Z,13.82
2019-05-14T09:22:02.490Z,14.01
2019-05-14T09:24:30.789Z,13.60
2019-05-14T09:26:59.426Z,13.45
2019-05-14T09:29:29.706Z,13.22
2019-05-14T09:31:59.397Z,13.41
2019-05-14T09:37:19.212Z,13.79
2019-05-14T09:39:48.850Z,13.63
2019-05-14T09:42:50.927Z,13.45
2019-05-14T09:45:19.210Z,13.37
2019-05-14T09:47:50.542Z,13.68
2019-05-14T09:53:38.567Z,14.09
2019-05-14T09:59:32.135Z,13.93
2019-05-14T10:04:53.670Z,13.95
2019-05-14T10:07:55.467Z,13.95
2019-05-14T10:10:23.827Z,14.64
2019-05-14T10:12:56.877Z,14.59
2019-05-14T10:18:28.557Z,14.65
2019-05-14T10:23:47.245Z,14.80
2019-05-14T10:26:18.345Z,14.91
2019-05-14T10:29:28.579Z,14.75
2019-05-14T10:31:59.237Z,14.70
2019-05-14T10:34:28.704Z,14.87
2019-05-14T10:37:10.173Z,14.84
2019-05-14T10:39:39.323Z,14.66
2019-05-14T10:42:29.390Z,15.09
2019-05-14T10:50:57.305Z,14.85
2019-05-14T10:54:16.862Z,15.22
2019-05-14T10:57:13.940Z,15.12
2019-05-14T10:59:42.243Z,15.25
2019-05-14T11:02:12.163Z,15.04
2019-05-14T11:07:10.615Z,15.33
2019-05-14T11:13:03.567Z,15.25
2019-05-14T11:15:31.932Z,15.13
2019-05-14T11:18:40.528Z,14.99
2019-05-14T11:24:21.100Z,14.57
2019-05-14T11:26:49.395Z,14.64
2019-05-14T11:29:19.744Z,14.99
2019-05-14T11:32:29.244Z,14.96
2019-05-14T11:35:19.186Z,14.80
2019-05-14T11:37:48.026Z,14.63
2019-05-14T11:43:03.370Z,15.07
2019-05-14T11:48:20.699Z,14.99
2019-05-14T11:51:09.166Z,15.39
2019-05-14T11:53:38.688Z,15.39
2019-05-14T11:56:08.916Z,15.44
2019-05-14T12:02:02.859Z,15.27
2019-05-14T12:04:31.481Z,15.36
2019-05-14T12:10:09.045Z,15.46
2019-05-14T12:12:37.541Z,15.53
2019-05-14T12:15:48.328Z,15.44
2019-05-14T12:18:18.390Z,15.51
2019-05-14T12:21:08.764Z,15.72
2019-05-14T12:24:13.718Z,15.58
2019-05-14T12:35:20.319Z,15.35
2019-05-14T12:37:48.892Z,15.43
2019-05-14T12:47:35.271Z,15.57
2019-05-14T12:53:19.935Z,15.76
2019-05-14T12:58:34.653Z,15.61
2019-05-14T13:03:48.522Z,15.75
2019-05-14T13:06:19.099Z,15.64
2019-05-14T13:08:49.155Z,15.63
2019-05-14T13:11:17.491Z,15.69
2019-05-14T13:13:49.006Z,15.68
2019-05-14T13:16:19.257Z,15.77
2019-05-14T13:18:49.887Z,15.73
2019-05-14T13:24:04.739Z,15.75
2019-05-14T13:26:33.086Z,15.92
2019-05-14T13:29:01.421Z,15.77
2019-05-14T13:31:29.691Z,15.58
2019-05-14T13:34:39.709Z,15.49
2019-05-14T13:40:50.308Z,14.82
2019-05-14T13:46:05.126Z,15.32
2019-05-14T13:49:14.536Z,15.36
2019-05-14T13:52:03.787Z,15.30
2019-05-14T13:54:32.101Z,15.35
2019-05-14T13:59:49.291Z,15.17
2019-05-14T14:08:10.804Z,15.22
2019-05-14T14:10:44.795Z,15.17
2019-05-14T14:13:11.230Z,15.33
2019-05-14T14:15:39.407Z,15.53
2019-05-14T14:18:07.731Z,15.64
2019-05-14T14:20:36.073Z,15.63
2019-05-14T14:23:39.318Z,15.73
2019-05-14T14:26:09.485Z,15.67
2019-05-14T14:28:52.703Z,15.27
2019-05-14T14:34:22.556Z,15.34
2019-05-14T14:37:10.140Z,15.64
2019-05-14T14:39:38.397Z,15.51
2019-05-14T14:45:29.261Z,15.28
2019-05-14T14:51:41.856Z,15.30
2019-05-14T14:54:10.569Z,15.39
2019-05-14T14:56:52.695Z,15.78
2019-05-14T15:02:53.539Z,15.14
2019-05-14T15:05:21.898Z,15.13
2019-05-14T15:07:50.518Z,15.02
2019-05-14T15:15:52.743Z,14.66
2019-05-14T15:21:09.815Z,14.14
2019-05-14T15:23:42.533Z,14.24
2019-05-14T15:26:23.588Z,14.10
2019-05-14T15:28:51.887Z,14.01
2019-05-14T15:34:08.945Z,13.95
2019-05-14T15:36:41.337Z,14.01
2019-05-14T15:42:13.681Z,13.68
2019-05-14T15:44:48.992Z,13.56
2019-05-14T15:47:11.607Z,13.43
2019-05-14T15:49:38.982Z,13.25
2019-05-14T15:52:08.587Z,13.27
2019-05-14T15:54:46.410Z,13.38
2019-05-14T15:57:08.983Z,13.44
2019-05-14T15:59:39.097Z,13.41
2019-05-14T16:02:41.055Z,13.42
2019-05-14T16:05:43.525Z,13.28
2019-05-14T16:08:11.904Z,13.38
2019-05-14T16:10:40.224Z,13.47
2019-05-14T16:13:09.016Z,13.45
2019-05-14T16:22:02.223Z,13.68
2019-05-14T16:27:51.826Z,13.70
2019-05-14T16:30:20.125Z,13.57
2019-05-14T16:33:29.222Z,13.61
2019-05-14T16:38:44.094Z,13.59
2019-05-14T16:41:12.394Z,13.45
2019-05-14T16:43:40.656Z,13.36
2019-05-14T16:46:09.790Z,13.36
2019-05-14T16:49:12.895Z,13.23
2019-05-14T16:51:41.018Z,13.10
2019-05-14T16:54:29.486Z,13.04
2019-05-14T16:57:11.336Z,13.19
2019-05-14T16:59:53.808Z,13.20
2019-05-14T17:02:22.040Z,13.23
2019-05-14T17:07:45.140Z,13.26
2019-05-14T17:10:49.758Z,13.06
2019-05-14T17:13:18.076Z,13.02
2019-05-14T17:15:48.127Z,12.90
2019-05-14T17:18:19.117Z,12.76
2019-05-14T17:20:48.705Z,12.62
2019-05-14T17:26:24.813Z,12.48
2019-05-14T17:28:53.099Z,12.56
2019-05-14T17:31:21.311Z,12.55
2019-05-14T17:33:49.629Z,12.43
2019-05-14T17:36:18.759Z,12.48
2019-05-14T17:39:21.273Z,12.45
2019-05-14T17:45:24.999Z,12.43
2019-05-14T17:48:12.724Z,12.41
2019-05-14T17:50:44.630Z,12.41
2019-05-14T17:53:11.511Z,12.42
2019-05-14T17:55:46.658Z,12.45
2019-05-14T18:04:02.405Z,12.05
2019-05-14T18:06:30.672Z,12.09
2019-05-14T18:08:59.005Z,12.17
2019-05-14T18:11:28.356Z,11.97
2019-05-14T18:13:58.960Z,12.06
2019-05-14T18:19:37.864Z,11.99
2019-05-14T18:22:05.700Z,11.95
2019-05-14T18:24:33.968Z,11.85
2019-05-14T18:29:51.205Z,11.47
2019-05-14T18:32:19.476Z,11.43
2019-05-14T18:34:48.675Z,11.43
2019-05-14T18:37:18.338Z,11.45
2019-05-14T18:39:48.343Z,11.46
2019-05-14T18:42:19.065Z,11.42
2019-05-14T18:44:49.762Z,11.17
2019-05-14T18:47:20.133Z,11.08
2019-05-14T18:49:48.731Z,11.07
2019-05-14T18:52:18.530Z,11.00
2019-05-14T18:54:48.318Z,10.96
2019-05-14T18:57:18.070Z,10.94
2019-05-14T18:59:49.311Z,10.88
2019-05-14T19:02:18.438Z,10.75
2019-05-14T19:08:28.611Z,10.51
2019-05-14T19:11:15.977Z,10.36
2019-05-14T19:13:45.069Z,10.34
2019-05-14T19:16:13.333Z,10.21
2019-05-14T19:21:48.846Z,9.94
2019-05-14T19:24:18.865Z,9.85
2019-05-14T19:26:49.420Z,9.72
2019-05-14T19:32:28.259Z,9.52
2019-05-14T19:34:57.715Z,9.48
2019-05-14T19:37:26.241Z,9.48
2019-05-14T19:39:58.741Z,9.45
2019-05-14T19:48:38.245Z,8.91
2019-05-14T19:51:08.198Z,8.87
2019-05-14T19:53:39.000Z,8.76
2019-05-14T19:56:06.606Z,8.79
2019-05-14T19:58:34.885Z,8.78
2019-05-14T20:06:53.549Z,8.86
2019-05-14T20:09:21.825Z,8.69
2019-05-14T20:11:50.094Z,8.65
2019-05-14T20:14:18.377Z,8.52
2019-05-14T20:19:42.183Z,8.42
2019-05-14T20:22:10.458Z,8.46
2019-05-14T20:24:41.531Z,8.34
2019-05-14T20:27:12.120Z,8.27
2019-05-14T20:29:38.756Z,8.22
2019-05-14T20:35:30.849Z,8.19
2019-05-14T20:37:49.357Z,8.14
2019-05-14T20:43:31.720Z,7.96
2019-05-14T20:45:59.999Z,7.94
2019-05-14T20:48:28.270Z,7.93
2019-05-14T20:50:58.481Z,7.91
2019-05-14T20:56:15.407Z,7.76
2019-05-14T21:01:41.919Z,7.65
2019-05-14T21:04:10.227Z,7.62
2019-05-14T21:06:39.408Z,7.54
2019-05-14T21:09:07.711Z,7.44
2019-05-14T21:11:38.243Z,7.44
2019-05-14T21:14:26.328Z,7.46
2019-05-14T21:19:56.484Z,7.33
2019-05-14T21:22:24.792Z,7.28
2019-05-14T21:27:52.062Z,7.15
2019-05-14T21:33:39.013Z,7.15
2019-05-14T21:36:09.428Z,7.09
2019-05-14T21:44:31.032Z,6.86
2019-05-14T21:46:59.353Z,6.80
2019-05-14T21:56:06.848Z,6.76
2019-05-14T22:04:58.240Z,6.57
2019-05-14T22:07:27.647Z,6.52
2019-05-14T22:09:58.240Z,6.54
2019-05-14T22:12:48.774Z,6.55
2019-05-14T22:15:18.480Z,6.51
2019-05-14T22:17:48.961Z,6.48
2019-05-14T22:20:19.255Z,6.50
2019-05-14T22:22:48.356Z,6.46
2019-05-14T22:25:19.021Z,6.44
2019-05-14T22:28:12.324Z,6.46
2019-05-14T22:30:38.868Z,6.44
2019-05-14T22:33:08.542Z,6.37
2019-05-14T22:38:35.830Z,6.27
2019-05-14T22:44:00.445Z,6.12
2019-05-14T22:49:16.053Z,6.07
2019-05-14T22:51:44.350Z,6.05
2019-05-14T22:54:12.697Z,6.02
2019-05-14T22:59:28.518Z,5.85
2019-05-14T23:01:58.837Z,5.89
2019-05-14T23:04:28.810Z,5.82
2019-05-14T23:06:58.671Z,5.80
2019-05-14T23:09:26.799Z,5.75
2019-05-14T23:11:55.078Z,5.74
2019-05-14T23:14:23.375Z,5.50
2019-05-14T23:16:54.203Z,5.31
2019-05-14T23:19:22.499Z,5.15
2019-05-14T23:21:50.785Z,5.14
2019-05-14T23:34:00.656Z,4.71
2019-05-14T23:36:29.271Z,4.64
2019-05-14T23:39:38.329Z,4.59
2019-05-14T23:42:08.968Z,4.56
2019-05-14T23:44:38.240Z,4.34
2019-05-14T23:47:08.271Z,4.13
2019-05-14T23:53:00.069Z,4.01
2019-05-14T23:55:49.246Z,4.14
2019-05-14T23:58:20.580Z,4.19
